Time;durP1;ratioP1;P1;durP2;ratioP2;P2;SDS_P1;SDS_P2;PMS_P1;PMS_P2;Temp;Humidity;BMP_temperature;BMP_pressure;BME280_temperature;BME280_humidity;BME280_pressure;Samples;Min_cycle;Max_cycle;Signal;HPM_P1;HPM_P2
2022/03/23 00:01:22;;;;;;;47.88;20.48;;;;;;;21.73;14.63;99843.19;5083627;28;20040;-78
2022/03/23 00:03:49;;;;;;;44.45;20.20;;;;;;;21.96;14.86;99840.38;5081926;28;20050;-78
2022/03/23 00:06:17;;;;;;;49.42;20.65;;;;;;;22.45;14.43;99837.44;5079664;28;20044;-78
2022/03/23 00:08:44;;;;;;;46.65;20.20;;;;;;;22.39;14.51;99836.97;5071870;28;20484;-78
2022/03/23 00:11:10;;;;;;;48.92;20.40;;;;;;;22.39;14.22;99833.34;5080788;28;20393;-78
2022/03/23 00:13:37;;;;;;;42.88;17.95;;;;;;;22.53;14.11;99839.13;5078160;28;20185;-78
2022/03/23 00:16:05;;;;;;;47.17;18.33;;;;;;;22.62;14.10;99832.06;5081691;28;20550;-78
2022/03/23 00:18:32;;;;;;;43.72;17.63;;;;;;;22.67;14.26;99837.34;5081920;28;20031;-78
2022/03/23 00:20:58;;;;;;;73.03;21.08;;;;;;;22.52;14.11;99829.91;5080830;28;20036;-78
2022/03/23 00:23:25;;;;;;;36.25;14.30;;;;;;;22.66;14.08;99838.53;5068757;28;20028;-78
2022/03/23 00:25:51;;;;;;;34.28;14.65;;;;;;;22.75;13.94;99832.63;5080662;28;20035;-78
2022/03/23 00:28:19;;;;;;;45.30;17.48;;;;;;;22.92;13.79;99832.00;5081071;28;20464;-78
2022/03/23 00:30:48;;;;;;;42.65;18.20;;;;;;;23.18;13.26;99820.66;5081684;28;20028;-79
2022/03/23 00:33:15;;;;;;;42.88;17.83;;;;;;;23.30;13.07;99817.56;5078893;28;20046;-78
2022/03/23 00:35:41;;;;;;;40.95;16.83;;;;;;;23.38;12.98;99824.09;5075876;28;20496;-78
2022/03/23 00:38:07;;;;;;;44.42;18.48;;;;;;;23.27;13.22;99821.16;5068542;28;20039;-78
2022/03/23 00:40:34;;;;;;;43.72;17.90;;;;;;;23.16;13.52;99822.25;5081219;28;20492;-78
2022/03/23 00:43:01;;;;;;;48.40;18.48;;;;;;;23.02;13.08;99808.09;5075360;28;20765;-78
2022/03/23 00:45:29;;;;;;;46.55;18.48;;;;;;;23.13;13.53;99814.59;5083435;28;20028;-78
2022/03/23 00:47:56;;;;;;;45.60;17.95;;;;;;;23.05;13.29;99813.75;5080508;28;20040;-78
2022/03/23 00:50:22;;;;;;;42.92;18.05;;;;;;;22.92;13.05;99806.78;5084536;28;20024;-78
2022/03/23 00:52:49;;;;;;;38.38;17.58;;;;;;;22.75;13.56;99812.22;5082541;28;20036;-78
2022/03/23 00:55:15;;;;;;;51.08;19.98;;;;;;;22.61;13.36;99816.44;5082692;28;20115;-78
2022/03/23 00:57:42;;;;;;;43.05;18.42;;;;;;;22.36;13.58;99808.91;5091180;28;20032;-78
2022/03/23 01:00:13;;;;;;;41.90;17.15;;;;;;;22.23;13.41;99811.16;5084504;28;20509;-78
2022/03/23 01:02:40;;;;;;;44.13;19.50;;;;;;;22.30;13.70;99807.66;5085354;28;20047;-78
2022/03/23 01:05:08;;;;;;;45.63;18.40;;;;;;;21.55;13.95;99799.34;5080672;28;20891;-78
2022/03/23 01:07:40;;;;;;;39.65;17.55;;;;;;;20.94;14.69;99799.47;5083117;28;20502;-78
2022/03/23 01:10:11;;;;;;;40.65;18.30;;;;;;;20.45;15.11;99799.34;5083855;28;20413;-78
2022/03/23 01:12:41;;;;;;;53.83;19.77;;;;;;;20.04;16.08;99789.72;5083836;28;20032;-78
2022/03/23 01:15:09;;;;;;;52.20;18.83;;;;;;;20.21;16.28;99783.69;5076566;28;20085;-78
2022/03/23 01:17:36;;;;;;;57.28;21.05;;;;;;;20.75;15.68;99791.97;5081583;28;20042;-78
2022/03/23 01:20:05;;;;;;;47.17;17.40;;;;;;;21.38;15.14;99781.13;5080754;28;20028;-78
2022/03/23 01:22:31;;;;;;;42.55;15.30;;;;;;;21.87;14.69;99781.91;5076267;28;20034;-78
2022/03/23 01:24:58;;;;;;;46.92;16.40;;;;;;;21.60;15.02;99787.84;5063347;28;20028;-78
2022/03/23 01:27:24;;;;;;;44.97;17.15;;;;;;;20.94;15.56;99782.72;5081947;28;20046;-78
2022/03/23 01:29:50;;;;;;;39.00;15.93;;;;;;;20.80;15.65;99779.69;5081445;28;20846;-78
2022/03/23 01:32:16;;;;;;;32.70;14.10;;;;;;;20.86;15.64;99779.03;5084497;28;20038;-78
2022/03/23 01:34:42;;;;;;;31.27;13.85;;;;;;;21.21;15.46;99776.06;5065443;28;20442;-78
2022/03/23 01:37:09;;;;;;;38.47;15.65;;;;;;;21.07;15.80;99776.66;5079848;28;20068;-78
2022/03/23 01:39:35;;;;;;;36.67;13.52;;;;;;;21.25;15.61;99780.53;5080102;28;20394;-78
2022/03/23 01:42:01;;;;;;;29.45;11.73;;;;;;;21.00;15.53;99782.06;5081826;28;20470;-78
2022/03/23 01:44:27;;;;;;;35.72;13.65;;;;;;;21.52;15.00;99788.94;5081120;28;20027;-78
2022/03/23 01:47:13;;;;;;;30.58;11.57;;;;;;;21.61;14.91;99781.09;5083647;28;20032;-78
2022/03/23 01:49:42;;;;;;;33.13;14.38;;;;;;;22.17;13.96;99778.31;5081609;28;20037;-78
2022/03/23 01:52:12;;;;;;;34.83;15.30;;;;;;;22.38;13.63;99779.38;5083641;28;20489;-78
2022/03/23 01:54:39;;;;;;;31.87;12.97;;;;;;;22.13;14.18;99775.47;5079519;28;20048;-78
2022/03/23 01:57:07;;;;;;;38.97;15.18;;;;;;;21.89;14.23;99773.16;5077819;28;20483;-78
2022/03/23 01:59:34;;;;;;;34.30;14.55;;;;;;;21.95;14.10;99778.03;5077728;28;20536;-78
2022/03/23 02:02:01;;;;;;;34.72;14.63;;;;;;;21.87;14.35;99761.50;5084307;28;20052;-78
2022/03/23 02:04:27;;;;;;;31.88;13.82;;;;;;;21.56;14.47;99764.66;5081556;28;20489;-79
2022/03/23 02:06:54;;;;;;;39.35;15.68;;;;;;;21.47;14.78;99758.53;5078737;28;20042;-78
2022/03/23 02:09:20;;;;;;;34.85;13.77;;;;;;;21.44;14.85;99754.50;5079190;28;20027;-78
2022/03/23 02:11:47;;;;;;;33.42;15.60;;;;;;;21.80;14.36;99756.59;5081777;28;20054;-78
2022/03/23 02:14:14;;;;;;;34.03;13.48;;;;;;;21.83;14.48;99750.28;5080573;28;20510;-78
2022/03/23 02:16:45;;;;;;;26.48;11.20;;;;;;;21.47;14.64;99750.91;5078660;28;20036;-78
2022/03/23 02:19:11;;;;;;;25.00;10.32;;;;;;;21.14;14.87;99754.41;5079061;28;20032;-78
2022/03/23 02:21:41;;;;;;;22.42;9.98;;;;;;;21.61;14.56;99747.56;5062761;28;20027;-78
2022/03/23 02:24:09;;;;;;;24.67;10.65;;;;;;;21.94;14.06;99745.66;5081873;28;20119;-78
2022/03/23 02:26:37;;;;;;;29.08;12.90;;;;;;;22.31;13.98;99742.13;5086314;28;20115;-78
2022/03/23 02:29:07;;;;;;;27.67;10.82;;;;;;;22.29;14.02;99745.28;5070920;28;20032;-78
2022/03/23 02:31:35;;;;;;;25.70;11.07;;;;;;;21.54;14.47;99744.66;5076848;28;20405;-78
2022/03/23 02:34:02;;;;;;;22.95;10.30;;;;;;;21.43;14.38;99746.47;5080672;28;20024;-78
2022/03/23 02:36:29;;;;;;;30.90;11.82;;;;;;;21.81;14.39;99746.25;5080011;28;20127;-78
2022/03/23 02:38:55;;;;;;;26.55;11.13;;;;;;;22.27;13.95;99741.25;5087358;28;20051;-78
2022/03/23 02:41:21;;;;;;;33.20;12.20;;;;;;;22.48;13.46;99747.91;5087045;28;20028;-78
2022/03/23 02:43:48;;;;;;;28.52;11.43;;;;;;;22.65;13.32;99740.91;5064772;28;20043;-78
2022/03/23 02:46:20;;;;;;;26.58;12.07;;;;;;;22.57;12.98;99740.00;5087565;28;20024;-78
2022/03/23 02:48:47;;;;;;;30.70;11.45;;;;;;;22.56;13.05;99743.19;5082913;28;20493;-78
2022/03/23 02:51:14;;;;;;;24.15;10.30;;;;;;;22.48;13.32;99745.09;5082979;28;20039;-78
2022/03/23 03:02:38;;;;;;;30.63;10.00;;;;;;;21.23;14.54;99731.81;5081375;28;20098;-78
2022/03/23 03:05:10;;;;;;;28.83;10.60;;;;;;;20.75;15.13;99736.13;5081659;28;20178;-78
2022/03/23 03:10:23;;;;;;;25.98;10.55;;;;;;;21.03;15.14;99731.03;5083311;28;20508;-78
2022/03/23 03:12:50;;;;;;;21.15;10.25;;;;;;;21.36;14.75;99733.19;5086461;28;20031;-78
2022/03/23 03:15:18;;;;;;;20.98;9.48;;;;;;;21.16;15.24;99721.34;5086415;28;20032;-78
2022/03/23 03:17:46;;;;;;;25.77;10.15;;;;;;;21.17;15.14;99722.94;5078348;28;20390;-78
2022/03/23 03:20:14;;;;;;;17.33;6.97;;;;;;;20.83;15.31;99732.31;5079476;28;20949;-78
2022/03/23 03:22:41;;;;;;;17.83;7.55;;;;;;;21.00;15.04;99731.81;5082047;28;20519;-78
2022/03/23 03:25:11;;;;;;;17.00;7.35;;;;;;;21.45;14.36;99741.34;5080051;28;20611;-78
2022/03/23 03:27:40;;;;;;;22.30;8.30;;;;;;;21.95;13.95;99730.50;5083881;28;20400;-78
2022/03/23 03:30:11;;;;;;;19.30;8.73;;;;;;;22.07;13.62;99737.00;5080504;28;20036;-78
2022/03/23 03:32:37;;;;;;;;;;;;;;;22.26;14.02;99737.66;5079340;28;20028;-78
2022/03/23 03:35:04;;;;;;;21.90;9.13;;;;;;;22.39;13.52;99735.41;5077366;28;20332;-78
2022/03/23 03:37:30;;;;;;;27.05;10.10;;;;;;;21.76;13.93;99729.78;5081235;28;20121;-78
2022/03/23 03:39:56;;;;;;;23.65;9.07;;;;;;;21.54;14.25;99730.69;5076587;28;20028;-78
2022/03/23 03:42:23;;;;;;;19.98;9.13;;;;;;;21.71;14.21;99735.69;5086312;28;20039;-78
2022/03/23 03:44:50;;;;;;;19.38;10.15;;;;;;;21.85;14.31;99731.16;5080085;28;20028;-78
2022/03/23 03:47:18;;;;;;;18.02;7.90;;;;;;;21.77;14.20;99723.84;5081514;28;20064;-78
2022/03/23 03:49:44;;;;;;;18.20;8.88;;;;;;;21.83;13.94;99729.88;5085320;28;20033;-78
2022/03/23 03:52:10;;;;;;;13.27;6.25;;;;;;;21.46;14.01;99726.16;5080251;28;20044;-78
2022/03/23 03:54:36;;;;;;;21.00;8.88;;;;;;;20.90;14.88;99731.63;5082006;28;20564;-78
2022/03/23 03:57:03;;;;;;;19.13;7.82;;;;;;;20.75;14.95;99727.75;5082504;28;20093;-78
2022/03/23 03:59:29;;;;;;;21.05;8.05;;;;;;;20.93;14.75;99731.69;5082198;28;20494;-78
2022/03/23 04:01:55;;;;;;;20.00;8.48;;;;;;;21.39;14.33;99738.03;5087317;28;20036;-78
2022/03/23 04:04:21;;;;;;;19.08;8.07;;;;;;;21.66;13.97;99734.03;5081888;28;20394;-79
2022/03/23 04:06:47;;;;;;;17.58;8.15;;;;;;;21.61;13.80;99730.78;5082838;28;20071;-78
2022/03/23 04:09:14;;;;;;;19.83;8.77;;;;;;;21.81;13.53;99733.06;5084329;28;20036;-78
2022/03/23 04:11:40;;;;;;;26.25;11.57;;;;;;;21.59;13.47;99730.34;5076581;28;20040;-78
2022/03/23 04:14:06;;;;;;;22.08;9.10;;;;;;;21.14;13.90;99732.03;5075147;28;20157;-78
2022/03/23 04:16:32;;;;;;;24.40;9.02;;;;;;;20.67;14.41;99726.03;5083506;28;20466;-78
2022/03/23 04:18:58;;;;;;;24.15;9.20;;;;;;;20.60;14.51;99728.69;5081828;28;20512;-78
2022/03/23 04:21:24;;;;;;;19.98;8.98;;;;;;;20.52;15.10;99724.97;5084342;28;20552;-78
2022/03/23 04:23:50;;;;;;;18.23;8.30;;;;;;;20.07;14.81;99722.03;5083577;28;20036;-78
2022/03/23 04:26:16;;;;;;;26.10;10.70;;;;;;;20.15;14.91;99718.25;5081448;28;20028;-78
2022/03/23 04:28:43;;;;;;;28.65;13.25;;;;;;;20.15;15.00;99718.25;5083919;28;20060;-78
2022/03/23 04:31:09;;;;;;;22.98;10.40;;;;;;;20.31;14.83;99713.41;5086537;28;20055;-78
2022/03/23 04:33:35;;;;;;;19.38;8.77;;;;;;;20.10;15.56;99710.16;5083788;28;20036;-78
2022/03/23 04:36:01;;;;;;;20.77;8.27;;;;;;;19.90;15.63;99706.59;5084630;28;20067;-78
2022/03/23 04:38:27;;;;;;;17.52;7.22;;;;;;;20.02;15.70;99714.78;5081565;28;20028;-78
2022/03/23 04:40:54;;;;;;;23.92;9.07;;;;;;;20.33;15.39;99713.84;5081712;28;20028;-78
2022/03/23 04:43:20;;;;;;;17.35;8.50;;;;;;;20.81;14.89;99723.50;5087749;28;20119;-78
2022/03/23 04:45:46;;;;;;;16.73;7.43;;;;;;;20.96;14.66;99719.75;5082273;28;20024;-78
2022/03/23 04:48:12;;;;;;;18.38;7.65;;;;;;;21.46;14.37;99714.97;5087182;28;20044;-78
2022/03/23 04:50:40;;;;;;;15.23;7.10;;;;;;;21.56;13.80;99709.56;5095060;28;20462;-78
2022/03/23 04:53:06;;;;;;;16.77;8.40;;;;;;;21.53;13.61;99707.50;5085039;28;20032;-78
2022/03/23 04:55:33;;;;;;;19.52;8.18;;;;;;;20.90;13.95;99714.88;5086100;28;20024;-77
2022/03/23 04:58:00;;;;;;;16.38;7.88;;;;;;;20.63;14.46;99711.22;5084576;28;20028;-77
2022/03/23 05:00:27;;;;;;;23.10;10.63;;;;;;;20.33;14.68;99713.84;5095727;28;20051;-77
2022/03/23 05:02:53;;;;;;;22.58;10.35;;;;;;;20.09;15.10;99716.94;5090512;28;20488;-77
2022/03/23 05:05:20;;;;;;;23.50;10.20;;;;;;;20.11;15.35;99711.78;5092148;28;20051;-78
2022/03/23 05:07:46;;;;;;;20.00;8.60;;;;;;;20.29;14.97;99707.41;5089909;28;20040;-77
2022/03/23 05:10:13;;;;;;;17.48;8.00;;;;;;;20.57;14.93;99707.09;5091666;28;20442;-77
2022/03/23 05:12:42;;;;;;;18.02;7.63;;;;;;;20.67;14.82;99706.50;5090959;28;20067;-77
2022/03/23 05:15:09;;;;;;;20.75;8.02;;;;;;;21.08;14.68;99710.41;5087916;28;20035;-78
2022/03/23 05:17:36;;;;;;;15.48;6.45;;;;;;;21.62;14.58;99704.44;5091771;28;20035;-78
2022/03/23 05:20:04;;;;;;;16.92;6.95;;;;;;;21.80;14.13;99705.47;5086145;28;20032;-78
2022/03/23 05:22:31;;;;;;;16.15;7.13;;;;;;;22.17;14.22;99706.34;5092183;28;20027;-77
2022/03/23 05:24:58;;;;;;;15.52;6.75;;;;;;;21.78;14.70;99702.25;5085929;28;20085;-78
2022/03/23 05:27:24;;;;;;;15.95;6.13;;;;;;;21.97;14.58;99702.94;5091904;28;20090;-78
2022/03/23 05:29:51;;;;;;;16.83;7.65;;;;;;;22.04;14.53;99702.22;5083357;28;20035;-77
2022/03/23 05:32:18;;;;;;;16.80;7.55;;;;;;;21.96;14.53;99700.53;5086596;28;20489;-78
2022/03/23 05:34:45;;;;;;;16.00;7.07;;;;;;;21.96;14.58;99701.31;5087701;28;20453;-78
2022/03/23 05:37:12;;;;;;;19.00;7.85;;;;;;;22.01;15.16;99692.59;5088025;28;20481;-78
2022/03/23 05:39:39;;;;;;;19.60;7.65;;;;;;;21.83;14.99;99691.56;5084850;28;20457;-77
2022/03/23 05:42:07;;;;;;;17.02;8.65;;;;;;;21.51;15.61;99695.09;5093211;28;20382;-78
2022/03/23 05:44:33;;;;;;;20.75;8.50;;;;;;;21.32;15.75;99696.84;5088670;28;20024;-79
2022/03/23 05:47:00;;;;;;;14.32;6.85;;;;;;;21.14;15.69;99689.38;5088285;28;20024;-79
2022/03/23 05:49:26;;;;;;;16.92;7.90;;;;;;;20.75;15.97;99691.47;5089460;28;20495;-77
2022/03/23 05:51:52;;;;;;;17.52;7.55;;;;;;;20.80;16.09;99691.16;5087888;28;20040;-77
2022/03/23 05:54:19;;;;;;;15.77;8.02;;;;;;;21.16;15.94;99690.59;5088723;28;20543;-77
2022/03/23 05:56:45;;;;;;;17.95;8.45;;;;;;;21.26;16.44;99686.38;5089001;28;20028;-77
2022/03/23 05:59:11;;;;;;;22.20;7.78;;;;;;;21.90;15.37;99680.50;5090824;28;20027;-78
2022/03/23 06:01:37;;;;;;;17.17;7.38;;;;;;;22.41;15.45;99677.84;5085042;28;20024;-78
2022/03/23 06:04:03;;;;;;;16.40;7.22;;;;;;;21.79;15.78;99684.31;5088886;28;20035;-78
2022/03/23 06:06:30;;;;;;;19.30;9.88;;;;;;;22.40;15.92;99676.25;5084299;28;20035;-78
2022/03/23 06:08:56;;;;;;;17.50;7.43;;;;;;;22.30;15.36;99685.34;5084144;28;20052;-77
2022/03/23 06:11:22;;;;;;;16.45;7.22;;;;;;;22.82;14.98;99667.47;5077465;28;20456;-77
2022/03/23 06:13:49;;;;;;;20.95;8.07;;;;;;;23.40;14.84;99680.72;5088009;28;20048;-77
2022/03/23 06:16:16;;;;;;;15.43;7.60;;;;;;;23.37;15.04;99679.50;5088780;28;20064;-77
2022/03/23 06:18:42;;;;;;;16.10;7.78;;;;;;;23.84;14.96;99678.56;5087845;28;20028;-77
2022/03/23 06:21:08;;;;;;;16.40;7.90;;;;;;;24.43;13.84;99675.19;5085026;28;20046;-77
2022/03/23 06:23:35;;;;;;;14.95;6.95;;;;;;;24.67;13.91;99682.03;5085383;28;20016;-76
2022/03/23 06:26:03;;;;;;;12.88;6.65;;;;;;;24.79;14.41;99678.03;5086757;28;20069;-78
2022/03/23 06:28:29;;;;;;;17.52;7.07;;;;;;;24.58;14.21;99685.22;5083588;28;20050;-77
2022/03/23 06:30:55;;;;;;;15.32;8.43;;;;;;;24.62;15.25;99677.59;5086036;28;20087;-78
2022/03/23 06:33:21;;;;;;;15.82;7.53;;;;;;;25.11;14.84;99681.69;5084757;28;20493;-77
2022/03/23 06:35:47;;;;;;;17.70;8.45;;;;;;;25.54;15.27;99680.41;5086830;28;20039;-77
2022/03/23 06:38:14;;;;;;;18.60;8.23;;;;;;;25.58;14.63;99680.44;5081632;28;20032;-77
2022/03/23 06:40:40;;;;;;;13.55;7.28;;;;;;;25.70;14.49;99677.16;5085338;28;20393;-77
2022/03/23 06:43:07;;;;;;;14.20;6.80;;;;;;;26.31;13.61;99679.31;5084379;28;21446;-77
2022/03/23 06:45:33;;;;;;;14.10;8.48;;;;;;;26.45;13.64;99686.88;5082333;28;20442;-77
2022/03/23 06:47:59;;;;;;;13.80;7.20;;;;;;;26.44;12.87;99688.91;5085862;28;20031;-77
2022/03/23 06:50:25;;;;;;;13.05;7.10;;;;;;;26.58;13.12;99688.81;5079823;28;20132;-77
2022/03/23 06:52:51;;;;;;;21.02;8.77;;;;;;;26.59;13.62;99679.16;5083834;28;20032;-77
2022/03/23 06:55:17;;;;;;;15.80;8.13;;;;;;;26.79;13.01;99687.09;5081231;28;20106;-77
2022/03/23 06:57:44;;;;;;;19.35;10.00;;;;;;;27.31;13.36;99680.19;5084773;28;20028;-77
2022/03/23 07:00:13;;;;;;;25.27;11.05;;;;;;;27.39;13.66;99681.75;5081989;28;20107;-77
2022/03/23 07:02:44;;;;;;;20.02;9.80;;;;;;;27.56;13.34;99677.97;5082197;28;20043;-77
2022/03/23 07:05:11;;;;;;;;;;;;;;;27.81;13.25;99675.66;5083735;28;20107;-78
2022/03/23 07:07:38;;;;;;;16.75;8.55;;;;;;;27.90;13.22;99680.78;5080808;28;20393;-77
2022/03/23 07:10:06;;;;;;;19.13;9.18;;;;;;;28.30;12.81;99679.88;5088452;28;20054;-77
2022/03/23 07:12:32;;;;;;;28.45;10.23;;;;;;;28.64;12.81;99683.44;5082007;28;20032;-77
2022/03/23 07:14:58;;;;;;;27.13;12.52;;;;;;;27.59;12.51;99694.03;5083255;28;20040;-77
2022/03/23 07:17:25;;;;;;;13.32;7.35;;;;;;;27.02;12.43;99690.94;5084047;28;20482;-77
2022/03/23 07:19:51;;;;;;;17.85;7.78;;;;;;;27.26;12.99;99689.09;5081972;28;20037;-77
2022/03/23 07:22:17;;;;;;;17.67;8.75;;;;;;;27.49;14.01;99678.03;5082075;28;20455;-77
2022/03/23 07:24:47;;;;;;;19.58;10.00;;;;;;;28.11;13.75;99672.06;5080464;28;22031;-77
2022/03/23 07:27:13;;;;;;;14.98;7.78;;;;;;;28.58;11.79;99673.81;5082294;28;20075;-77
2022/03/23 07:29:40;;;;;;;16.67;9.63;;;;;;;28.87;12.32;99667.75;5081666;28;20089;-77
2022/03/23 07:32:07;;;;;;;13.73;7.07;;;;;;;28.76;11.60;99670.75;5082876;28;20052;-77
2022/03/23 07:34:33;;;;;;;13.90;7.15;;;;;;;29.07;11.91;99677.91;5079895;28;20390;-78
2022/03/23 07:36:59;;;;;;;14.45;7.00;;;;;;;29.28;11.90;99669.06;5066405;28;20402;-78
2022/03/23 07:39:25;;;;;;;14.93;7.45;;;;;;;29.45;11.84;99681.31;5081465;28;20067;-78
2022/03/23 07:41:53;;;;;;;15.35;7.47;;;;;;;29.45;11.45;99683.31;5081337;28;20103;-78
2022/03/23 07:44:21;;;;;;;14.68;7.20;;;;;;;29.72;11.18;99681.97;5087030;28;20035;-78
2022/03/23 07:46:47;;;;;;;12.88;6.43;;;;;;;29.84;11.08;99669.25;5086693;28;20028;-78
2022/03/23 07:49:15;;;;;;;11.05;6.22;;;;;;;29.88;11.05;99670.75;5082544;28;20439;-78
2022/03/23 07:51:41;;;;;;;16.02;7.60;;;;;;;29.57;11.45;99671.38;5081860;28;20036;-78
2022/03/23 07:54:08;;;;;;;16.13;8.13;;;;;;;29.55;11.32;99671.00;5081999;28;20029;-78
2022/03/23 07:56:35;;;;;;;16.23;7.72;;;;;;;29.91;11.25;99664.22;5083528;28;20036;-78
2022/03/23 07:59:01;;;;;;;13.30;6.93;;;;;;;30.24;10.80;99664.34;5080240;28;20377;-78
2022/03/23 08:01:27;;;;;;;10.13;5.95;;;;;;;30.32;10.71;99665.75;5084289;28;20032;-78
2022/03/23 08:03:53;;;;;;;13.23;6.28;;;;;;;30.41;10.53;99666.00;5088240;28;20028;-78
2022/03/23 08:06:19;;;;;;;12.88;6.95;;;;;;;30.29;10.46;99667.47;5084584;28;20063;-78
2022/03/23 08:08:45;;;;;;;14.50;6.97;;;;;;;30.40;10.85;99662.38;5088455;28;20036;-78
2022/03/23 08:11:11;;;;;;;12.20;5.90;;;;;;;30.46;10.64;99666.28;5085718;28;20061;-78
2022/03/23 08:13:37;;;;;;;11.48;6.07;;;;;;;30.53;10.10;99663.28;5085283;28;20043;-78
2022/03/23 08:16:05;;;;;;;9.85;5.25;;;;;;;30.62;10.05;99657.78;5086869;28;20733;-78
2022/03/23 08:18:32;;;;;;;12.43;6.07;;;;;;;30.58;9.91;99668.44;5091148;28;20466;-78
2022/03/23 08:21:00;;;;;;;11.60;5.93;;;;;;;30.33;9.68;99656.88;5084619;28;20036;-78
2022/03/23 08:23:26;;;;;;;9.43;4.95;;;;;;;30.48;10.03;99660.19;5086277;28;20040;-78
2022/03/23 08:25:53;;;;;;;13.77;5.28;;;;;;;30.64;9.82;99663.03;5090196;28;20024;-78
2022/03/23 08:28:19;;;;;;;12.93;5.28;;;;;;;30.65;9.76;99665.44;5086907;28;20048;-78
2022/03/23 08:30:45;;;;;;;7.90;5.13;;;;;;;30.80;9.60;99660.22;5090610;28;20574;-78
2022/03/23 08:33:12;;;;;;;9.43;5.20;;;;;;;30.98;10.05;99668.31;5084703;28;20078;-78
2022/03/23 08:35:39;;;;;;;7.53;4.68;;;;;;;31.02;9.19;99654.81;5086173;28;20040;-78
2022/03/23 08:38:06;;;;;;;8.55;4.93;;;;;;;31.12;9.26;99662.25;5086217;28;20092;-78
2022/03/23 08:40:33;;;;;;;10.20;5.10;;;;;;;31.31;9.10;99662.16;5072334;28;20461;-78
2022/03/23 08:43:00;;;;;;;10.70;5.38;;;;;;;31.53;9.66;99659.56;5088506;28;20031;-78
2022/03/23 08:45:27;;;;;;;12.25;5.63;;;;;;;31.41;9.64;99648.94;5085494;28;20032;-79
2022/03/23 08:47:54;;;;;;;6.82;4.47;;;;;;;31.62;9.37;99648.38;5086519;28;20040;-78
2022/03/23 08:50:20;;;;;;;10.43;5.20;;;;;;;31.79;8.89;99646.25;5066585;28;20024;-78
2022/03/23 08:52:46;;;;;;;9.25;5.82;;;;;;;31.89;9.54;99645.94;5084804;28;20172;-78
2022/03/23 08:55:15;;;;;;;10.57;6.05;;;;;;;31.87;9.72;99642.75;5084850;28;20427;-79
2022/03/23 08:57:44;;;;;;;12.63;6.97;;;;;;;31.56;9.58;99647.31;5084890;28;20043;-79
2022/03/23 09:00:14;;;;;;;8.38;4.60;;;;;;;31.17;9.41;99650.38;5084726;28;20020;-79
2022/03/23 09:02:41;;;;;;;7.82;4.20;;;;;;;31.10;9.55;99642.84;5089457;28;20519;-78
2022/03/23 09:05:14;;;;;;;8.82;5.13;;;;;;;31.55;8.96;99637.22;5083240;28;20382;-78
2022/03/23 09:07:41;;;;;;;7.65;4.50;;;;;;;31.49;9.61;99635.34;5083790;28;20032;-78
2022/03/23 09:10:08;;;;;;;8.00;4.38;;;;;;;31.93;8.93;99631.63;5085472;28;20028;-78
2022/03/23 09:12:36;;;;;;;7.63;3.95;;;;;;;32.23;8.59;99636.06;5081933;28;20028;-78
2022/03/23 09:15:04;;;;;;;4.15;2.83;;;;;;;32.47;8.23;99623.88;5084473;28;20032;-78
2022/03/23 09:17:30;;;;;;;6.15;3.40;;;;;;;32.21;8.27;99627.97;5084895;28;20140;-78
2022/03/23 09:19:57;;;;;;;5.35;3.30;;;;;;;32.19;7.78;99626.81;5088702;28;20059;-78
2022/03/23 09:22:23;;;;;;;6.25;3.45;;;;;;;32.30;8.24;99630.16;5087584;28;20363;-79
2022/03/23 09:24:49;;;;;;;5.25;3.42;;;;;;;32.64;8.42;99630.28;5088016;28;20036;-78
2022/03/23 09:27:15;;;;;;;4.97;3.20;;;;;;;32.80;8.15;99633.00;5086701;28;20122;-79
2022/03/23 09:29:41;;;;;;;8.77;4.60;;;;;;;32.52;8.35;99629.03;5081669;28;20033;-78
2022/03/23 09:32:10;;;;;;;5.85;3.42;;;;;;;32.75;8.32;99625.03;5085466;28;20028;-78
2022/03/23 09:34:38;;;;;;;7.85;3.65;;;;;;;32.81;8.45;99613.88;5085154;28;20475;-79
2022/03/23 09:39:50;;;;;;;6.45;3.10;;;;;;;32.64;6.90;99616.06;5084321;28;20094;-78
2022/03/23 09:42:20;;;;;;;5.50;2.28;;;;;;;30.44;8.10;99623.41;5084761;28;20034;-79
2022/03/23 09:44:47;;;;;;;4.50;3.20;;;;;;;29.49;8.43;99618.97;5081379;28;20041;-78
2022/03/23 09:47:14;;;;;;;9.15;3.45;;;;;;;29.48;8.88;99620.22;5085146;28;20032;-79
2022/03/23 09:49:41;;;;;;;4.72;3.35;;;;;;;29.59;8.56;99603.81;5084908;28;20111;-79
2022/03/23 09:52:07;;;;;;;4.32;3.30;;;;;;;31.36;7.49;99604.84;5085050;28;20042;-78
2022/03/23 09:54:33;;;;;;;5.40;3.28;;;;;;;31.40;7.61;99605.53;5081216;28;20035;-79
2022/03/23 09:56:59;;;;;;;4.28;2.92;;;;;;;32.44;7.26;99604.09;5081847;28;20500;-79
2022/03/23 09:59:25;;;;;;;5.32;2.80;;;;;;;32.91;7.42;99599.28;5087552;28;20040;-79
2022/03/23 10:02:14;;;;;;;4.60;2.80;;;;;;;32.71;7.31;99595.91;5082545;28;20078;-79
2022/03/23 10:04:49;;;;;;;5.68;3.33;;;;;;;33.25;7.47;99593.66;5081508;28;20039;-79
2022/03/23 10:07:48;;;;;;;5.60;3.33;;;;;;;32.22;6.67;99586.13;5082546;28;20032;-79
2022/03/23 10:10:55;;;;;;;5.35;3.22;;;;;;;31.57;7.01;99583.59;5082813;28;20797;-79
2022/03/23 10:13:59;;;;;;;4.57;2.97;;;;;;;32.96;6.81;99577.97;5086168;28;20043;-79
2022/03/23 10:16:49;;;;;;;4.07;2.67;;;;;;;33.91;5.92;99574.53;5079761;28;20385;-79
2022/03/23 10:19:15;;;;;;;4.10;2.30;;;;;;;33.68;5.96;99577.88;5081887;28;20043;-79
2022/03/23 10:21:42;;;;;;;3.70;2.42;;;;;;;33.78;5.69;99568.91;5083410;28;20097;-79
2022/03/23 10:24:08;;;;;;;4.40;3.20;;;;;;;32.33;6.62;99569.50;5088348;28;20024;-79
2022/03/23 10:26:40;;;;;;;5.68;2.97;;;;;;;32.08;6.10;99565.44;5086155;28;20024;-79
2022/03/23 10:29:24;;;;;;;6.93;3.00;;;;;;;31.09;6.33;99563.84;5084196;28;20081;-79
2022/03/23 10:32:10;;;;;;;6.15;2.47;;;;;;;31.10;5.66;99560.56;5087470;28;20040;-79
2022/03/23 10:34:45;;;;;;;3.38;1.90;;;;;;;30.46;7.46;99560.59;5084618;28;20044;-79
2022/03/23 10:37:13;;;;;;;5.97;2.10;;;;;;;31.80;6.01;99546.38;5074428;28;20573;-79
2022/03/23 10:39:39;;;;;;;4.38;2.00;;;;;;;32.19;5.37;99548.03;5086670;28;20040;-79
2022/03/23 10:42:14;;;;;;;1.85;1.60;;;;;;;33.61;5.13;99544.72;5081525;28;20036;-79
2022/03/23 10:44:41;;;;;;;2.75;1.85;;;;;;;34.35;4.38;99546.72;5082990;28;20024;-79
2022/03/23 10:47:20;;;;;;;2.58;1.80;;;;;;;34.82;5.10;99534.97;5081353;28;20039;-79
2022/03/23 10:49:46;;;;;;;1.52;1.30;;;;;;;33.92;4.27;99534.16;5087852;28;20401;-79
2022/03/23 10:52:16;;;;;;;2.53;1.60;;;;;;;34.31;4.50;99528.97;5051276;28;20127;-79
2022/03/23 10:55:05;;;;;;;1.63;1.50;;;;;;;34.49;3.47;99526.97;5080428;28;20031;-79
2022/03/23 10:57:49;;;;;;;1.52;1.23;;;;;;;34.57;4.09;99525.41;5080882;28;20406;-79
2022/03/23 11:00:19;;;;;;;1.88;1.40;;;;;;;34.44;4.18;99521.06;5074920;28;20427;-79
2022/03/23 11:02:49;;;;;;;1.65;1.42;;;;;;;33.34;5.04;99522.53;5073831;28;20431;-79
2022/03/23 11:05:41;;;;;;;3.17;1.92;;;;;;;32.05;4.24;99515.19;5070437;28;20105;-79
2022/03/23 11:08:13;;;;;;;4.93;2.35;;;;;;;32.48;5.04;99510.94;5072645;28;20040;-79
2022/03/23 11:16:35;;;;;;;2.47;1.38;;;;;;;32.86;3.74;99503.09;5076900;28;20052;-78
2022/03/23 11:19:10;;;;;;;2.22;1.30;;;;;;;33.57;4.92;99489.16;5070961;28;20447;-78
2022/03/23 11:22:01;;;;;;;1.92;1.63;;;;;;;33.26;3.78;99489.06;5073508;28;20060;-78
2022/03/23 11:24:32;;;;;;;2.25;1.17;;;;;;;33.73;3.76;99484.03;5072429;28;20055;-79
2022/03/23 11:27:00;;;;;;;2.75;1.50;;;;;;;33.98;3.30;99485.88;5076826;28;20039;-79
2022/03/23 11:29:27;;;;;;;3.15;1.58;;;;;;;34.06;3.44;99476.59;5072654;28;20437;-79
2022/03/23 11:31:53;;;;;;;3.05;1.70;;;;;;;34.08;4.23;99474.06;5075359;28;20037;-79
2022/03/23 11:34:23;;;;;;;2.53;1.50;;;;;;;34.45;3.83;99466.41;5078042;28;20485;-79
2022/03/23 11:36:51;;;;;;;1.77;1.15;;;;;;;34.85;3.33;99462.66;5073230;28;20392;-79
2022/03/23 11:39:22;;;;;;;2.25;1.27;;;;;;;35.55;3.00;99456.59;5079048;28;20445;-79
2022/03/23 11:41:51;;;;;;;0.95;0.90;;;;;;;34.97;3.25;99451.09;5059219;28;20085;-79
2022/03/23 11:44:21;;;;;;;1.30;1.02;;;;;;;34.57;2.94;99456.13;5076759;28;20028;-79
2022/03/23 11:46:49;;;;;;;2.00;0.82;;;;;;;35.18;2.56;99447.28;5074973;28;20029;-79
2022/03/23 11:49:18;;;;;;;1.27;0.80;;;;;;;34.41;3.14;99453.56;5073859;28;20040;-79
2022/03/23 11:52:30;;;;;;;1.00;0.90;;;;;;;34.46;2.59;99444.38;5070719;28;20056;-79